Billings, MT (59101)

2:47 PM MST on December 03, 2016 (GMT -0700)
Yellowstone RV Campground | | Change Station

Elev 3120 ft 45.76 °N, 108.48 °W | Updated 29 seconds ago

Mostly Cloudy
Mostly Cloudy
46.8 °F
Feels Like 47 °F
N
1.3
Wind Variable Wind from NNW
Gusts 2.5 mph

Today
High -- | Low -- °F
--% Chance of Precip.
Yesterday
High -- | Low -- °F
Precip. -- in
Pressure 29.94 in
Visibility 10.0 miles
Clouds Few 7000 ft
Mostly Cloudy 9500 ft
Windchill 47 °F
Dew Point 22 °F
Humidity 37%
Rainfall 0.00 in
Snow Depth Not available.
7:37 AM 4:30 PM
Waxing Crescent, 17% visible
METAR KBIL 032053Z 30022G30KT 10SM FEW070 BKN095 07/M09 A2988 RMK AO2 PK WND 29035/2023 SLP136 VIRGA T00721094 55004
Pressure 29.94 in
Visibility 10.0 miles
Clouds Few 7000 ft
Mostly Cloudy 9500 ft
Windchill 47 °F
Dew Point 22 °F
Humidity 37%
Rainfall 0.00 in
Snow Depth Not available.
7:37 AM 4:30 PM
Waxing Crescent, 17% visible
METAR KBIL 032053Z 30022G30KT 10SM FEW070 BKN095 07/M09 A2988 RMK AO2 PK WND 29035/2023 SLP136 VIRGA T00721094 55004

10-Day Weather Forecast

Almanac

Astronomy

Dec. 03, 2016 Rise Set
Actual Time
Civil Twilight
Nautical Twilight
Astronomical Twilight
Moon
Length of Visible Light
Length of Day
Tomorrow will be .
, % of the Moon is Illuminated

Today's Extremes

State Highs State Lows

Community

WunderPhotos

Upload Photos

1,955,481 photos uploaded!

WunderBlog® & News

Nearby

Air Quality

  Air Quality AQ Index Pollutant
Not available.

Snow Depth

Station Depth Elevation

Earthquake Activity

City Distance Mag. Time & Date
Minimum magnitude displayed is 2.5.

Coastal Water Temperatures

Place Temperature

Stations

Nearby Weather Stations

Station Location Temp. Windchill Dew Point Humidity Wind Precip. Elev Updated Type
                   

Watches & Warnings

There are currently no watches in effect.